Terminal Aerodrome Forecast
Issued by NWS Twin Cities, MN

Home | Current Version | Previous Version | Text Only | Print | Product List | Glossary On
Versions: 1 2 3 4 5 6 7 8 9 10 11 12 13 14 15 16 17
000
FTUS43 KMPX 192300
TAFEAU
TAF
KEAU 192339Z 2000/2024 19012KT P6SM VCTS BKN045CB OVC090
      TEMPO 2001/2004 5SM TSRA OVC030CB
     FM200400 22007KT P6SM BKN050 OVC100
     FM201000 25006KT 5SM BR BKN020
     FM201400 31010KT P6SM BKN035
     FM201600 30010G16KT P6SM FEW250=

USA.gov is the U.S. government's official web portal to all federal, state and local government web resources and services.